Time;durP1;ratioP1;P1;durP2;ratioP2;P2;SDS_P1;SDS_P2;PMS_P1;PMS_P2;Temp;Humidity;BMP_temperature;BMP_pressure;BME280_temperature;BME280_humidity;BME280_pressure;Samples;Min_cycle;Max_cycle;Signal;HPM_P1;HPM_P2
2024/01/30 00:00:58;;;;;;;;;;;;;;;;;;4926338;29;5312;-65
2024/01/30 00:03:24;;;;;;;;;;;;;;;;;;4929009;29;3503;-64
2024/01/30 00:05:49;;;;;;;;;;;;;;;;;;4926530;29;5119;-65
2024/01/30 00:08:14;;;;;;;;;;;;;;;;;;4924867;29;5091;-65
2024/01/30 00:10:40;;;;;;;;;;;;;;;;;;4922549;28;4531;-65
2024/01/30 00:13:05;;;;;;;;;;;;;;;;;;4908570;29;4720;-65
2024/01/30 00:15:30;;;;;;;;;;;;;;;;;;4927348;29;3682;-65
2024/01/30 00:17:56;;;;;;;;;;;;;;;;;;4924531;29;5533;-66
2024/01/30 00:20:22;;;;;;;;;;;;;;;;;;4930350;29;4881;-65
2024/01/30 00:22:47;;;;;;;;;;;;;;;;;;4912073;29;4911;-65
2024/01/30 00:25:13;;;;;;;;;;;;;;;;;;4910827;29;4574;-66
2024/01/30 00:27:38;;;;;;;;;;;;;;;;;;4915475;29;4672;-65
2024/01/30 00:30:04;;;;;;;;;;;;;;;;;;4929817;29;3492;-65
2024/01/30 00:32:30;;;;;;;;;;;;;;;;;;4927060;29;5141;-66
2024/01/30 00:34:55;;;;;;;;;;;;;;;;;;4925156;29;4720;-66
2024/01/30 00:37:20;;;;;;;;;;;;;;;;;;4924840;29;5631;-65
2024/01/30 00:39:46;;;;;;;;;;;;;;;;;;4911637;29;4521;-66
2024/01/30 00:42:11;;;;;;;;;;;;;;;;;;4934219;29;2544;-65
2024/01/30 00:44:39;;;;;;;;;;;;;;;;;;4929030;29;4711;-66
2024/01/30 00:47:05;;;;;;;;;;;;;;;;;;4927550;29;4974;-65
2024/01/30 00:49:30;;;;;;;;;;;;;;;;;;4929998;29;5301;-66
2024/01/30 00:51:55;;;;;;;;;;;;;;;;;;4930537;29;4507;-66
2024/01/30 00:54:21;;;;;;;;;;;;;;;;;;4931197;29;1152;-66
2024/01/30 00:56:46;;;;;;;;;;;;;;;;;;4929495;28;4490;-65
2024/01/30 00:59:11;;;;;;;;;;;;;;;;;;4927352;29;4680;-65
2024/01/30 01:01:36;;;;;;;;;;;;;;;;;;4928854;29;4544;-66
2024/01/30 01:04:02;;;;;;;;;;;;;;;;;;4910101;29;4519;-65
2024/01/30 01:06:27;;;;;;;;;;;;;;;;;;4929701;29;3621;-66
2024/01/30 01:08:52;;;;;;;;;;;;;;;;;;4909645;29;4456;-66
2024/01/30 01:11:18;;;;;;;;;;;;;;;;;;4926852;29;5112;-65
2024/01/30 01:13:43;;;;;;;;;;;;;;;;;;4909113;29;5110;-66
2024/01/30 01:16:08;;;;;;;;;;;;;;;;;;4924374;29;5111;-65
2024/01/30 01:18:34;;;;;;;;;;;;;;;;;;4927203;29;3695;-65
2024/01/30 01:21:00;;;;;;;;;;;;;;;;;;4924748;29;5150;-66
2024/01/30 01:23:25;;;;;;;;;;;;;;;;;;4924276;29;4787;-66
2024/01/30 01:25:50;;;;;;;;;;;;;;;;;;4906026;29;5357;-65
2024/01/30 01:28:16;;;;;;;;;;;;;;;;;;4922457;29;5090;-66
2024/01/30 01:30:41;;;;;;;;;;;;;;;;;;4928414;29;5167;-66
2024/01/30 01:33:07;;;;;;;;;;;;;;;;;;4928028;29;3354;-66
2024/01/30 01:35:32;;;;;;;;;;;;;;;;;;4924714;29;5082;-66
2024/01/30 01:37:59;;;;;;;;;;;;;;;;;;4923254;29;5182;-66
2024/01/30 01:40:25;;;;;;;;;;;;;;;;;;4924198;29;5153;-66
2024/01/30 01:42:51;;;;;;;;;;;;;;;;;;4928746;29;5351;-66
2024/01/30 01:45:17;;;;;;;;;;;;;;;;;;4928037;29;3727;-67
2024/01/30 01:47:42;;;;;;;;;;;;;;;;;;4929220;29;4771;-66
2024/01/30 01:50:07;;;;;;;;;;;;;;;;;;4927175;29;5187;-67
2024/01/30 01:52:33;;;;;;;;;;;;;;;;;;4926671;29;4559;-66
2024/01/30 01:54:58;;;;;;;;;;;;;;;;;;4924819;28;4715;-66
2024/01/30 01:57:23;;;;;;;;;;;;;;;;;;4906917;29;3869;-66
2024/01/30 01:59:49;;;;;;;;;;;;;;;;;;4913126;29;4906;-66
2024/01/30 02:02:15;;;;;;;;;;;;;;;;;;4912047;29;5376;-66
2024/01/30 02:04:41;;;;;;;;;;;;;;;;;;4927445;29;5378;-66
2024/01/30 02:07:06;;;;;;;;;;;;;;;;;;4907155;29;4829;-66
2024/01/30 02:09:31;;;;;;;;;;;;;;;;;;4929150;29;3467;-66
2024/01/30 02:11:57;;;;;;;;;;;;;;;;;;4930174;29;4781;-66
2024/01/30 02:14:22;;;;;;;;;;;;;;;;;;4928968;29;5009;-66
2024/01/30 02:16:47;;;;;;;;;;;;;;;;;;4926822;29;5244;-66
2024/01/30 02:19:13;;;;;;;;;;;;;;;;;;4910310;29;4830;-66
2024/01/30 02:21:38;;;;;;;;;;;;;;;;;;4929094;29;4908;-66
2024/01/30 02:24:04;;;;;;;;;;;;;;;;;;4931477;29;3420;-66
2024/01/30 02:26:29;;;;;;;;;;;;;;;;;;4929511;29;5141;-66
2024/01/30 02:28:54;;;;;;;;;;;;;;;;;;4928240;29;5082;-66
2024/01/30 02:31:20;;;;;;;;;;;;;;;;;;4928186;29;4535;-66
2024/01/30 02:33:45;;;;;;;;;;;;;;;;;;4931242;29;5215;-66
2024/01/30 02:36:10;;;;;;;;;;;;;;;;;;4930526;29;3765;-66
2024/01/30 02:38:35;;;;;;;;;;;;;;;;;;4928945;29;5085;-66
2024/01/30 02:41:01;;;;;;;;;;;;;;;;;;4913553;29;5081;-66
2024/01/30 02:43:26;;;;;;;;;;;;;;;;;;4928107;29;5202;-66
2024/01/30 02:45:51;;;;;;;;;;;;;;;;;;4930048;29;4762;-66
2024/01/30 02:48:17;;;;;;;;;;;;;;;;;;4930850;29;3448;-66
2024/01/30 02:50:42;;;;;;;;;;;;;;;;;;4923178;29;5202;-65
2024/01/30 02:53:07;;;;;;;;;;;;;;;;;;4921922;29;4534;-66
2024/01/30 02:55:33;;;;;;;;;;;;;;;;;;4903186;29;5177;-66
2024/01/30 02:57:58;;;;;;;;;;;;;;;;;;4923148;29;5086;-66
2024/01/30 03:00:23;;;;;;;;;;;;;;;;;;4924458;29;3503;-66
2024/01/30 03:02:49;;;;;;;;;;;;;;;;;;4924399;29;5000;-66
2024/01/30 03:05:14;;;;;;;;;;;;;;;;;;4925360;29;4693;-66
2024/01/30 03:07:39;;;;;;;;;;;;;;;;;;4907511;29;5618;-66
2024/01/30 03:10:05;;;;;;;;;;;;;;;;;;4926851;29;5151;-66
2024/01/30 03:12:31;;;;;;;;;;;;;;;;;;4923948;29;3737;-66
2024/01/30 03:14:56;;;;;;;;;;;;;;;;;;4905246;29;5042;-66
2024/01/30 03:17:21;;;;;;;;;;;;;;;;;;4922399;29;5079;-66
2024/01/30 03:19:46;;;;;;;;;;;;;;;;;;4926247;29;4693;-66
2024/01/30 03:22:12;;;;;;;;;;;;;;;;;;4924738;29;5145;-66
2024/01/30 03:24:37;;;;;;;;;;;;;;;;;;4912684;29;5153;-65
2024/01/30 03:27:03;;;;;;;;;;;;;;;;;;4912008;29;3691;-65
2024/01/30 03:29:28;;;;;;;;;;;;;;;;;;4924476;29;4662;-65
2024/01/30 03:31:54;;;;;;;;;;;;;;;;;;4929573;29;4978;-65
2024/01/30 03:34:19;;;;;;;;;;;;;;;;;;4925010;29;5128;-65
2024/01/30 03:36:45;;;;;;;;;;;;;;;;;;4926409;29;5056;-66
2024/01/30 03:39:10;;;;;;;;;;;;;;;;;;4914126;29;3527;-65
2024/01/30 03:41:36;;;;;;;;;;;;;;;;;;4929648;29;5015;-65
2024/01/30 03:44:01;;;;;;;;;;;;;;;;;;4929761;29;5099;-65
2024/01/30 03:46:26;;;;;;;;;;;;;;;;;;4909729;29;5163;-65
2024/01/30 03:48:52;;;;;;;;;;;;;;;;;;4910278;29;5153;-66
2024/01/30 03:51:17;;;;;;;;;;;;;;;;;;4930195;29;3594;-65
2024/01/30 03:53:42;;;;;;;;;;;;;;;;;;4909663;29;5136;-66
2024/01/30 03:56:08;;;;;;;;;;;;;;;;;;4910257;29;4798;-65
2024/01/30 03:58:33;;;;;;;;;;;;;;;;;;4931842;29;4960;-65
2024/01/30 04:00:58;;;;;;;;;;;;;;;;;;4927664;29;4489;-64
2024/01/30 04:03:24;;;;;;;;;;;;;;;;;;4928501;29;3683;-65
2024/01/30 04:05:49;;;;;;;;;;;;;;;;;;4927976;29;5159;-65
2024/01/30 04:08:15;;;;;;;;;;;;;;;;;;4931881;29;4700;-65
2024/01/30 04:10:40;;;;;;;;;;;;;;;;;;4929979;29;5520;-65
2024/01/30 04:13:05;;;;;;;;;;;;;;;;;;4929625;29;5400;-65
2024/01/30 04:15:31;;;;;;;;;;;;;;;;;;4914319;29;3613;-65
2024/01/30 04:17:59;;;;;;;;;;;;;;;;;;4928097;29;4505;-66
2024/01/30 04:20:25;;;;;;;;;;;;;;;;;;4908965;29;5193;-66
2024/01/30 04:22:50;;;;;;;;;;;;;;;;;;4931297;29;4870;-66
2024/01/30 04:25:15;;;;;;;;;;;;;;;;;;4928795;29;5238;-65
2024/01/30 04:27:41;;;;;;;;;;;;;;;;;;4930755;29;4502;-65
2024/01/30 04:30:06;;;;;;;;;;;;;;;;;;4930568;29;3626;-65
2024/01/30 04:32:32;;;;;;;;;;;;;;;;;;4909929;29;5070;-65
2024/01/30 04:34:57;;;;;;;;;;;;;;;;;;4931287;29;5154;-65
2024/01/30 04:37:23;;;;;;;;;;;;;;;;;;4932470;29;4561;-65
2024/01/30 04:39:48;;;;;;;;;;;;;;;;;;4928679;29;4737;-65
2024/01/30 04:42:13;;;;;;;;;;;;;;;;;;4914476;29;3797;-65
2024/01/30 04:44:38;;;;;;;;;;;;;;;;;;4931337;29;4981;-65
2024/01/30 04:47:05;;;;;;;;;;;;;;;;;;4931523;29;4692;-66
2024/01/30 04:49:31;;;;;;;;;;;;;;;;;;4929290;29;5121;-65
2024/01/30 04:51:56;;;;;;;;;;;;;;;;;;4929398;29;5063;-65
2024/01/30 04:54:22;;;;;;;;;;;;;;;;;;4931619;29;3553;-65
2024/01/30 04:56:47;;;;;;;;;;;;;;;;;;4932446;28;4946;-65
2024/01/30 04:59:12;;;;;;;;;;;;;;;;;;4928407;29;4828;-65
2024/01/30 05:01:37;;;;;;;;;;;;;;;;;;4926579;29;5046;-65
2024/01/30 05:04:03;;;;;;;;;;;;;;;;;;4924527;29;5184;-65
2024/01/30 05:06:28;;;;;;;;;;;;;;;;;;4927893;29;3630;-64
2024/01/30 05:08:54;;;;;;;;;;;;;;;;;;4925741;29;4502;-66
2024/01/30 05:11:19;;;;;;;;;;;;;;;;;;4926023;29;4774;-65
2024/01/30 05:13:44;;;;;;;;;;;;;;;;;;4928507;29;5163;-65
2024/01/30 05:16:10;;;;;;;;;;;;;;;;;;4926754;29;5038;-65
2024/01/30 05:18:35;;;;;;;;;;;;;;;;;;4925224;29;3639;-65
2024/01/30 05:21:01;;;;;;;;;;;;;;;;;;4926819;29;5160;-65
2024/01/30 05:23:26;;;;;;;;;;;;;;;;;;4929891;29;5118;-65
2024/01/30 05:25:52;;;;;;;;;;;;;;;;;;4907298;29;5192;-66
2024/01/30 05:28:17;;;;;;;;;;;;;;;;;;4929554;29;5229;-65
2024/01/30 05:30:43;;;;;;;;;;;;;;;;;;4928914;29;4546;-65
2024/01/30 05:33:09;;;;;;;;;;;;;;;;;;4922476;29;3417;-66
2024/01/30 05:35:34;;;;;;;;;;;;;;;;;;4930279;29;5202;-66
2024/01/30 05:38:00;;;;;;;;;;;;;;;;;;4911385;29;5119;-66
2024/01/30 05:40:25;;;;;;;;;;;;;;;;;;4912541;29;4491;-66
2024/01/30 05:42:50;;;;;;;;;;;;;;;;;;4928209;29;5058;-66
2024/01/30 05:45:16;;;;;;;;;;;;;;;;;;4929019;29;3493;-66
2024/01/30 05:47:41;;;;;;;;;;;;;;;;;;4925299;29;4742;-66
2024/01/30 05:50:07;;;;;;;;;;;;;;;;;;4926448;29;5185;-65
2024/01/30 05:52:32;;;;;;;;;;;;;;;;;;4923845;29;5315;-66
2024/01/30 05:54:57;;;;;;;;;;;;;;;;;;4926454;28;4613;-67
2024/01/30 05:57:22;;;;;;;;;;;;;;;;;;4930277;29;3566;-67
2024/01/30 05:59:48;;;;;;;;;;;;;;;;;;4914246;29;5031;-66
2024/01/30 06:02:13;;;;;;;;;;;;;;;;;;4923242;29;5099;-65
2024/01/30 06:04:39;;;;;;;;;;;;;;;;;;4920509;29;4733;-67
2024/01/30 06:07:06;;;;;;;;;;;;;;;;;;4927044;29;5120;-67
2024/01/30 06:09:31;;;;;;;;;;;;;;;;;;4896244;29;3436;-67
2024/01/30 06:11:56;;;;;;;;;;;;;;;;;;4925155;29;4605;-60
2024/01/30 06:14:21;;;;;;;;;;;;;;;;;;4921771;29;4527;-62
2024/01/30 06:16:47;;;;;;;;;;;;;;;;;;4920289;29;5087;-61
2024/01/30 06:19:12;;;;;;;;;;;;;;;;;;4922609;29;4554;-60
2024/01/30 06:21:38;;;;;;;;;;;;;;;;;;4922855;29;4593;-60
2024/01/30 06:24:03;;;;;;;;;;;;;;;;;;4902772;29;3555;-59
2024/01/30 06:26:29;;;;;;;;;;;;;;;;;;4931708;29;4638;-59
2024/01/30 06:28:54;;;;;;;;;;;;;;;;;;4929888;29;5056;-67
2024/01/30 06:31:19;;;;;;;;;;;;;;;;;;4930464;29;5199;-59
2024/01/30 06:33:46;;;;;;;;;;;;;;;;;;4923854;29;4540;-60
2024/01/30 06:36:12;;;;;;;;;;;;;;;;;;4930192;29;1242;-62
2024/01/30 06:38:37;;;;;;;;;;;;;;;;;;4930389;29;5107;-61
2024/01/30 06:41:02;;;;;;;;;;;;;;;;;;4930275;29;4684;-61
2024/01/30 06:43:28;;;;;;;;;;;;;;;;;;4928959;29;5207;-62
2024/01/30 06:45:53;;;;;;;;;;;;;;;;;;4911464;29;4610;-61
2024/01/30 06:48:18;;;;;;;;;;;;;;;;;;4919280;29;3492;-66
2024/01/30 06:50:44;;;;;;;;;;;;;;;;;;4923061;29;5272;-66
2024/01/30 06:53:09;;;;;;;;;;;;;;;;;;4928954;29;4696;-66
2024/01/30 06:55:34;;;;;;;;;;;;;;;;;;4929468;28;4997;-65
2024/01/30 06:58:00;;;;;;;;;;;;;;;;;;4931330;29;5062;-65
2024/01/30 07:00:25;;;;;;;;;;;;;;;;;;4927201;29;3439;-66
2024/01/30 07:02:50;;;;;;;;;;;;;;;;;;4909379;29;5052;-67
2024/01/30 07:05:17;;;;;;;;;;;;;;;;;;4926738;29;5030;-65
2024/01/30 07:07:42;;;;;;;;;;;;;;;;;;4929940;29;5049;-65
2024/01/30 07:10:08;;;;;;;;;;;;;;;;;;4929559;29;5672;-65
2024/01/30 07:12:33;;;;;;;;;;;;;;;;;;4928593;29;3522;-65
2024/01/30 07:14:59;;;;;;;;;;;;;;;;;;4912898;29;5160;-65
2024/01/30 07:17:24;;;;;;;;;;;;;;;;;;4926662;29;5068;-64
2024/01/30 07:19:50;;;;;;;;;;;;;;;;;;4928804;29;4747;-64
2024/01/30 07:22:15;;;;;;;;;;;;;;;;;;4925775;29;4964;-65
2024/01/30 07:24:48;;;;;;;;;;;;;;;;;;4930171;29;5074;-65
2024/01/30 07:27:14;;;;;;;;;;;;;;;;;;4923156;29;1720;-65
2024/01/30 07:29:39;;;;;;;;;;;;;;;;;;4912491;29;4788;-64
2024/01/30 07:32:05;;;;;;;;;;;;;;;;;;4924353;29;4633;-64
2024/01/30 07:34:30;;;;;;;;;;;;;;;;;;4929071;29;5182;-64
2024/01/30 07:36:55;;;;;;;;;;;;;;;;;;4912599;29;4738;-65
2024/01/30 07:39:21;;;;;;;;;;;;;;;;;;4929831;29;1399;-64
2024/01/30 07:41:46;;;;;;;;;;;;;;;;;;4930186;29;5056;-65
2024/01/30 07:44:12;;;;;;;;;;;;;;;;;;4924651;29;4936;-66
2024/01/30 07:46:37;;;;;;;;;;;;;;;;;;4928425;29;5038;-64
2024/01/30 07:49:02;;;;;;;;;;;;;;;;;;4912162;29;4999;-64
2024/01/30 07:51:29;;;;;;;;;;;;;;;;;;4927844;29;3424;-64
2024/01/30 07:53:54;;;;;;;;;;;;;;;;;;4921546;29;5164;-64
2024/01/30 07:56:19;;;;;;;;;;;;;;;;;;4927961;28;4638;-65
2024/01/30 07:58:45;;;;;;;;;;;;;;;;;;4928824;29;5068;-65
2024/01/30 08:01:10;;;;;;;;;;;;;;;;;;4929083;29;5149;-65
2024/01/30 08:03:36;;;;;;;;;;;;;;;;;;4929203;29;3531;-66
2024/01/30 08:06:02;;;;;;;;;;;;;;;;;;4931920;29;4854;-65
2024/01/30 08:08:28;;;;;;;;;;;;;;;;;;4932645;29;5099;-65
2024/01/30 08:10:53;;;;;;;;;;;;;;;;;;4931975;29;5003;-65
2024/01/30 08:13:18;;;;;;;;;;;;;;;;;;4930976;29;5241;-65
2024/01/30 08:15:44;;;;;;;;;;;;;;;;;;4932677;29;5084;-66
2024/01/30 08:18:09;;;;;;;;;;;;;;;;;;4928099;29;3590;-65
2024/01/30 08:20:34;;;;;;;;;;;;;;;;;;4921248;29;4685;-66
2024/01/30 08:23:00;;;;;;;;;;;;;;;;;;4916806;29;5039;-65
2024/01/30 08:25:25;;;;;;;;;;;;;;;;;;4925333;29;5309;-64
2024/01/30 08:27:51;;;;;;;;;;;;;;;;;;4930913;29;5136;-65
2024/01/30 08:30:16;;;;;;;;;;;;;;;;;;4932821;29;1593;-64
2024/01/30 08:32:41;;;;;;;;;;;;;;;;;;4933179;29;4932;-65
2024/01/30 08:35:08;;;;;;;;;;;;;;;;;;4930976;29;5178;-66
2024/01/30 08:37:33;;;;;;;;;;;;;;;;;;4924686;29;4703;-65
2024/01/30 08:39:59;;;;;;;;;;;;;;;;;;4931819;29;5186;-65
2024/01/30 08:42:25;;;;;;;;;;;;;;;;;;4930159;29;3653;-66
2024/01/30 08:44:51;;;;;;;;;;;;;;;;;;4932071;29;4751;-65
2024/01/30 08:47:16;;;;;;;;;;;;;;;;;;4914074;29;4511;-65
2024/01/30 08:49:44;;;;;;;;;;;;;;;;;;4913426;29;5038;-64
2024/01/30 08:52:09;;;;;;;;;;;;;;;;;;4930105;29;5044;-65
2024/01/30 08:54:35;;;;;;;;;;;;;;;;;;4927923;29;3506;-65
2024/01/30 08:57:00;;;;;;;;;;;;;;;;;;4932480;29;4443;-65
2024/01/30 08:59:25;;;;;;;;;;;;;;;;;;4932248;29;5069;-65
2024/01/30 09:01:53;;;;;;;;;;;;;;;;;;4930586;29;5087;-65
2024/01/30 09:04:18;;;;;;;;;;;;;;;;;;4929897;29;4515;-65
2024/01/30 09:06:44;;;;;;;;;;;;;;;;;;4914993;29;4930;-65
2024/01/30 09:09:09;;;;;;;;;;;;;;;;;;4931989;29;2471;-65
2024/01/30 09:11:35;;;;;;;;;;;;;;;;;;4931885;29;5023;-65
2024/01/30 09:14:00;;;;;;;;;;;;;;;;;;4927564;29;4719;-65
2024/01/30 09:16:25;;;;;;;;;;;;;;;;;;4930107;29;5087;-65
2024/01/30 09:18:50;;;;;;;;;;;;;;;;;;4928678;29;4551;-66
2024/01/30 09:21:16;;;;;;;;;;;;;;;;;;4932571;29;1116;-64
2024/01/30 09:23:41;;;;;;;;;;;;;;;;;;4911735;29;4631;-63
2024/01/30 09:26:06;;;;;;;;;;;;;;;;;;4911156;29;5319;-65
2024/01/30 09:28:32;;;;;;;;;;;;;;;;;;4929520;29;5153;-64
2024/01/30 09:30:57;;;;;;;;;;;;;;;;;;4926319;29;5171;-65
2024/01/30 09:33:22;;;;;;;;;;;;;;;;;;4930220;29;1143;-65
2024/01/30 09:35:48;;;;;;;;;;;;;;;;;;4929831;29;5023;-65
2024/01/30 09:38:13;;;;;;;;;;;;;;;;;;4929888;29;5030;-65
2024/01/30 09:40:38;;;;;;;;;;;;;;;;;;4922124;29;5078;-66
2024/01/30 09:43:04;;;;;;;;;;;;;;;;;;4912696;29;4562;-65
2024/01/30 09:45:29;;;;;;;;;;;;;;;;;;4931751;29;1902;-65
2024/01/30 09:47:54;;;;;;;;;;;;;;;;;;4929484;29;4477;-65
2024/01/30 09:50:19;;;;;;;;;;;;;;;;;;4931314;29;4712;-65
2024/01/30 09:52:45;;;;;;;;;;;;;;;;;;4930183;29;4719;-65
2024/01/30 09:55:10;;;;;;;;;;;;;;;;;;4930943;28;4526;-65
2024/01/30 09:57:36;;;;;;;;;;;;;;;;;;4931403;29;1129;-65
2024/01/30 10:00:02;;;;;;;;;;;;;;;;;;4928885;29;5005;-65
2024/01/30 10:02:27;;;;;;;;;;;;;;;;;;4908874;29;4909;-65
2024/01/30 10:04:53;;;;;;;;;;;;;;;;;;4896648;29;5130;-65
2024/01/30 10:07:18;;;;;;;;;;;;;;;;;;4930704;29;4527;-66
2024/01/30 10:09:43;;;;;;;;;;;;;;;;;;4929948;29;4767;-65
2024/01/30 10:12:09;;;;;;;;;;;;;;;;;;4928290;29;3746;-65
2024/01/30 10:14:37;;;;;;;;;;;;;;;;;;4927907;29;4950;-65
2024/01/30 10:17:03;;;;;;;;;;;;;;;;;;4927073;29;4630;-65
2024/01/30 10:19:28;;;;;;;;;;;;;;;;;;4930744;29;5205;-65
2024/01/30 10:21:53;;;;;;;;;;;;;;;;;;4930364;29;4527;-65
2024/01/30 10:24:19;;;;;;;;;;;;;;;;;;4924535;29;1159;-64
2024/01/30 10:26:44;;;;;;;;;;;;;;;;;;4907306;29;5075;-65
2024/01/30 10:29:09;;;;;;;;;;;;;;;;;;4930319;29;4587;-65
2024/01/30 10:31:35;;;;;;;;;;;;;;;;;;4912885;29;4685;-65
2024/01/30 10:34:00;;;;;;;;;;;;;;;;;;4926893;29;4511;-65
2024/01/30 10:36:28;;;;;;;;;;;;;;;;;;4928439;29;3544;-65
2024/01/30 10:38:53;;;;;;;;;;;;;;;;;;4910917;29;4992;-66
2024/01/30 10:41:19;;;;;;;;;;;;;;;;;;4929784;29;5097;-65
2024/01/30 10:43:46;;;;;;;;;;;;;;;;;;4913106;29;5913;-65
2024/01/30 10:46:15;;;;;;;;;;;;;;;;;;4911452;29;5185;-65
2024/01/30 10:48:44;;;;;;;;;;;;;;;;;;4913058;29;4522;-65
2024/01/30 10:51:10;;;;;;;;;;;;;;;;;;4911940;29;1278;-65
2024/01/30 10:53:35;;;;;;;;;;;;;;;;;;4928398;29;4462;-65
2024/01/30 10:56:01;;;;;;;;;;;;;;;;;;4890353;29;5332;-65
2024/01/30 10:58:26;;;;;;;;;;;;;;;;;;4929523;29;5798;-65
2024/01/30 11:00:51;;;;;;;;;;;;;;;;;;4904465;29;4849;-65
2024/01/30 11:03:17;;;;;;;;;;;;;;;;;;4924967;29;3305;-64
2024/01/30 11:05:42;;;;;;;;;;;;;;;;;;4912528;29;4486;-64
2024/01/30 11:08:14;;;;;;;;;;;;;;;;;;4913929;29;5198;-65
2024/01/30 11:10:48;;;;;;;;;;;;;;;;;;4927662;29;4518;-63
2024/01/30 11:13:13;;;;;;;;;;;;;;;;;;4930126;29;5997;-63
2024/01/30 11:15:39;;;;;;;;;;;;;;;;;;4928743;29;4651;-64
2024/01/30 11:18:04;;;;;;;;;;;;;;;;;;4899373;29;3511;-65
2024/01/30 11:20:33;;;;;;;;;;;;;;;;;;4922530;29;4704;-66
2024/01/30 11:22:58;;;;;;;;;;;;;;;;;;4928077;29;4895;-65
2024/01/30 11:25:24;;;;;;;;;;;;;;;;;;4929214;29;5007;-65
2024/01/30 11:27:50;;;;;;;;;;;;;;;;;;4926867;29;5301;-66
2024/01/30 11:30:28;;;;;;;;;;;;;;;;;;4924170;29;3479;-66
2024/01/30 11:33:05;;;;;;;;;;;;;;;;;;4924891;29;4905;-66
2024/01/30 11:35:31;;;;;;;;;;;;;;;;;;4929511;29;5200;-65
2024/01/30 11:37:57;;;;;;;;;;;;;;;;;;4926646;29;5154;-64
2024/01/30 11:40:22;;;;;;;;;;;;;;;;;;4912460;29;5066;-59
2024/01/30 11:42:47;;;;;;;;;;;;;;;;;;4933057;29;4904;-61
2024/01/30 11:45:13;;;;;;;;;;;;;;;;;;4916052;29;3253;-61
2024/01/30 11:47:38;;;;;;;;;;;;;;;;;;4931286;29;4652;-62
2024/01/30 11:50:06;;;;;;;;;;;;;;;;;;4928173;29;4550;-59
2024/01/30 11:52:31;;;;;;;;;;;;;;;;;;4925172;29;5055;-59
2024/01/30 11:54:57;;;;;;;;;;;;;;;;;;4927009;29;5238;-59
2024/01/30 11:57:22;;;;;;;;;;;;;;;;;;4929644;29;3520;-60
2024/01/30 11:59:47;;;;;;;;;;;;;;;;;;4913267;29;5887;-64
2024/01/30 12:02:17;;;;;;;;;;;;;;;;;;4927479;29;4805;-64
2024/01/30 12:04:42;;;;;;;;;;;;;;;;;;4925164;29;5121;-58
2024/01/30 12:07:08;;;;;;;;;;;;;;;;;;4906181;29;5172;-60
2024/01/30 12:09:33;;;;;;;;;;;;;;;;;;4912697;29;1440;-61
2024/01/30 12:11:59;;;;;;;;;;;;;;;;;;4927275;29;4998;-60
2024/01/30 12:14:25;;;;;;;;;;;;;;;;;;4931171;29;4724;-60
2024/01/30 12:16:50;;;;;;;;;;;;;;;;;;4893672;29;5220;-60
2024/01/30 12:19:22;;;;;;;;;;;;;;;;;;4928974;29;5078;-60
2024/01/30 12:21:53;;;;;;;;;;;;;;;;;;4925941;29;5217;-65
2024/01/30 12:24:18;;;;;;;;;;;;;;;;;;4908194;29;3444;-62
2024/01/30 12:26:44;;;;;;;;;;;;;;;;;;4923889;29;4676;-63
2024/01/30 12:29:09;;;;;;;;;;;;;;;;;;4925096;29;4928;-60
2024/01/30 12:31:34;;;;;;;;;;;;;;;;;;4930534;29;5044;-60
2024/01/30 12:34:00;;;;;;;;;;;;;;;;;;4927421;29;5067;-59
2024/01/30 12:36:25;;;;;;;;;;;;;;;;;;4925911;29;3363;-61
2024/01/30 12:38:50;;;;;;;;;;;;;;;;;;4931826;29;4533;-60
2024/01/30 12:41:15;;;;;;;;;;;;;;;;;;4909819;29;4993;-61
2024/01/30 12:43:41;;;;;;;;;;;;;;;;;;4930304;29;5052;-62
2024/01/30 12:46:06;;;;;;;;;;;;;;;;;;4905547;29;5288;-60
2024/01/30 12:48:31;;;;;;;;;;;;;;;;;;4913301;29;3232;-61
2024/01/30 12:50:57;;;;;;;;;;;;;;;;;;4927144;29;4548;-59
2024/01/30 12:53:22;;;;;;;;;;;;;;;;;;4908879;29;4956;-62
2024/01/30 12:55:49;;;;;;;;;;;;;;;;;;4909816;29;5210;-60
2024/01/30 12:58:15;;;;;;;;;;;;;;;;;;4929162;29;5082;-59
2024/01/30 13:00:42;;;;;;;;;;;;;;;;;;4930755;29;5114;-59
2024/01/30 13:03:08;;;;;;;;;;;;;;;;;;4931379;29;1067;-60
2024/01/30 13:05:33;;;;;;;;;;;;;;;;;;4927246;29;4937;-64
2024/01/30 13:07:59;;;;;;;;;;;;;;;;;;4927455;29;4675;-60
2024/01/30 13:10:24;;;;;;;;;;;;;;;;;;4911991;29;4519;-61
2024/01/30 13:12:49;;;;;;;;;;;;;;;;;;4926923;29;4715;-59
2024/01/30 13:15:14;;;;;;;;;;;;;;;;;;4927223;29;3291;-62
2024/01/30 13:17:42;;;;;;;;;;;;;;;;;;4920860;29;5142;-60
2024/01/30 13:20:08;;;;;;;;;;;;;;;;;;4929880;29;4596;-58
2024/01/30 13:22:33;;;;;;;;;;;;;;;;;;4926564;29;4589;-63
2024/01/30 13:24:59;;;;;;;;;;;;;;;;;;4911657;29;5136;-59
2024/01/30 13:27:24;;;;;;;;;;;;;;;;;;4927967;29;3595;-61
2024/01/30 13:29:49;;;;;;;;;;;;;;;;;;4923407;29;4649;-61
2024/01/30 13:32:15;;;;;;;;;;;;;;;;;;4900094;29;5054;-61
2024/01/30 13:34:40;;;;;;;;;;;;;;;;;;4926403;29;5331;-60
2024/01/30 13:37:06;;;;;;;;;;;;;;;;;;4927397;29;5038;-58
2024/01/30 13:39:31;;;;;;;;;;;;;;;;;;4927836;29;1422;-59
2024/01/30 13:41:56;;;;;;;;;;;;;;;;;;4930513;29;5026;-59
2024/01/30 13:44:22;;;;;;;;;;;;;;;;;;4925064;29;4654;-64
2024/01/30 13:46:47;;;;;;;;;;;;;;;;;;4927002;29;4887;-63
2024/01/30 13:49:12;;;;;;;;;;;;;;;;;;4929229;29;4618;-61
2024/01/30 13:51:38;;;;;;;;;;;;;;;;;;4913018;29;4892;-63
2024/01/30 13:54:03;;;;;;;;;;;;;;;;;;4929437;29;3332;-61
2024/01/30 13:56:29;;;;;;;;;;;;;;;;;;4912062;29;4543;-61
2024/01/30 13:58:56;;;;;;;;;;;;;;;;;;4911903;29;5200;-60
2024/01/30 14:01:21;;;;;;;;;;;;;;;;;;4924891;29;5130;-61
2024/01/30 14:03:47;;;;;;;;;;;;;;;;;;4928574;29;4763;-60
2024/01/30 14:06:12;;;;;;;;;;;;;;;;;;4929278;29;3298;-59
2024/01/30 14:08:37;;;;;;;;;;;;;;;;;;4927182;29;4870;-58
2024/01/30 14:11:03;;;;;;;;;;;;;;;;;;4928047;29;5875;-62
2024/01/30 14:13:28;;;;;;;;;;;;;;;;;;4929011;29;5110;-60
2024/01/30 14:15:54;;;;;;;;;;;;;;;;;;4924680;29;5194;-59
2024/01/30 14:18:19;;;;;;;;;;;;;;;;;;4910978;29;1991;-59
2024/01/30 14:20:44;;;;;;;;;;;;;;;;;;4926443;29;4494;-60
2024/01/30 14:23:10;;;;;;;;;;;;;;;;;;4929106;29;4528;-59
2024/01/30 14:25:35;;;;;;;;;;;;;;;;;;4922691;29;5082;-62
2024/01/30 14:28:00;;;;;;;;;;;;;;;;;;4903809;29;5136;-59
2024/01/30 14:30:26;;;;;;;;;;;;;;;;;;4924757;29;3562;-65
2024/01/30 14:32:51;;;;;;;;;;;;;;;;;;4899752;29;5040;-64
2024/01/30 14:35:17;;;;;;;;;;;;;;;;;;4926681;29;5023;-60
2024/01/30 14:37:42;;;;;;;;;;;;;;;;;;4921955;29;5035;-61
2024/01/30 14:40:08;;;;;;;;;;;;;;;;;;4924979;29;4541;-62
2024/01/30 14:42:33;;;;;;;;;;;;;;;;;;4925949;29;3283;-60
2024/01/30 14:44:58;;;;;;;;;;;;;;;;;;4927115;29;4528;-64
2024/01/30 14:47:24;;;;;;;;;;;;;;;;;;4923527;29;4951;-68
2024/01/30 14:49:49;;;;;;;;;;;;;;;;;;4907904;29;4713;-68
2024/01/30 14:52:15;;;;;;;;;;;;;;;;;;4923333;29;4990;-67
2024/01/30 14:54:40;;;;;;;;;;;;;;;;;;4907926;28;5004;-67
2024/01/30 14:57:05;;;;;;;;;;;;;;;;;;4923602;29;3546;-68
2024/01/30 14:59:31;;;;;;;;;;;;;;;;;;4895223;29;5394;-67
2024/01/30 15:01:56;;;;;;;;;;;;;;;;;;4920611;29;5180;-66
2024/01/30 15:04:22;;;;;;;;;;;;;;;;;;4925803;29;5127;-67
2024/01/30 15:06:48;;;;;;;;;;;;;;;;;;4928549;29;4996;-67
2024/01/30 15:09:14;;;;;;;;;;;;;;;;;;4926057;29;3503;-67
2024/01/30 15:11:40;;;;;;;;;;;;;;;;;;4924701;29;5074;-68
2024/01/30 15:14:05;;;;;;;;;;;;;;;;;;4931349;29;4638;-67
2024/01/30 15:16:31;;;;;;;;;;;;;;;;;;4922791;29;5959;-67
2024/01/30 15:18:56;;;;;;;;;;;;;;;;;;4925279;29;5060;-66
2024/01/30 15:21:22;;;;;;;;;;;;;;;;;;4927627;29;3518;-67
2024/01/30 15:23:48;;;;;;;;;;;;;;;;;;4931850;29;5059;-68
2024/01/30 15:26:13;;;;;;;;;;;;;;;;;;4929999;29;4577;-66
2024/01/30 15:28:38;;;;;;;;;;;;;;;;;;4931729;29;5201;-67
2024/01/30 15:31:04;;;;;;;;;;;;;;;;;;4928806;29;5209;-69
2024/01/30 15:33:29;;;;;;;;;;;;;;;;;;4898061;29;3886;-69
2024/01/30 15:35:54;;;;;;;;;;;;;;;;;;4928060;29;5089;-69
2024/01/30 15:38:21;;;;;;;;;;;;;;;;;;4913059;29;4521;-67
2024/01/30 15:40:46;;;;;;;;;;;;;;;;;;4929999;29;5187;-69
2024/01/30 15:43:11;;;;;;;;;;;;;;;;;;4928434;29;4561;-68
2024/01/30 15:45:37;;;;;;;;;;;;;;;;;;4924584;29;3830;-69
2024/01/30 15:48:03;;;;;;;;;;;;;;;;;;4931735;29;5065;-69
2024/01/30 15:50:28;;;;;;;;;;;;;;;;;;4927692;29;5112;-68
2024/01/30 15:52:54;;;;;;;;;;;;;;;;;;4930932;29;5100;-67
2024/01/30 15:55:20;;;;;;;;;;;;;;;;;;4932499;28;5084;-69
2024/01/30 15:57:45;;;;;;;;;;;;;;;;;;4932587;29;5137;-66
2024/01/30 16:00:11;;;;;;;;;;;;;;;;;;4926118;29;3968;-69
2024/01/30 16:02:36;;;;;;;;;;;;;;;;;;4926980;29;5062;-67
2024/01/30 16:05:02;;;;;;;;;;;;;;;;;;4928203;29;4524;-68
2024/01/30 16:07:27;;;;;;;;;;;;;;;;;;4924812;29;4746;-68
2024/01/30 16:09:53;;;;;;;;;;;;;;;;;;4929784;29;5076;-69
2024/01/30 16:12:18;;;;;;;;;;;;;;;;;;4932894;29;1315;-69
2024/01/30 16:14:43;;;;;;;;;;;;;;;;;;4928722;29;5107;-67
2024/01/30 16:17:08;;;;;;;;;;;;;;;;;;4929888;29;5062;-68
2024/01/30 16:19:34;;;;;;;;;;;;;;;;;;4932513;29;4509;-68
2024/01/30 16:21:59;;;;;;;;;;;;;;;;;;4911257;29;5062;-66
2024/01/30 16:24:25;;;;;;;;;;;;;;;;;;4925140;29;3836;-69
2024/01/30 16:26:50;;;;;;;;;;;;;;;;;;4926870;29;4576;-69
2024/01/30 16:29:16;;;;;;;;;;;;;;;;;;4928233;29;4837;-67
2024/01/30 16:31:41;;;;;;;;;;;;;;;;;;4929229;29;5093;-69
2024/01/30 16:34:06;;;;;;;;;;;;;;;;;;4928639;29;5065;-68
2024/01/30 16:36:32;;;;;;;;;;;;;;;;;;4927901;29;3665;-68
2024/01/30 16:38:58;;;;;;;;;;;;;;;;;;4911990;29;4967;-69
2024/01/30 16:41:24;;;;;;;;;;;;;;;;;;4919155;29;5036;-66
2024/01/30 16:43:49;;;;;;;;;;;;;;;;;;4922337;29;5109;-68
2024/01/30 16:46:14;;;;;;;;;;;;;;;;;;4918696;29;4546;-65
2024/01/30 16:48:39;;;;;;;;;;;;;;;;;;4922375;29;5089;-64
2024/01/30 16:51:05;;;;;;;;;;;;;;;;;;4930211;29;3226;-65